Time;durP1;ratioP1;P1;durP2;ratioP2;P2;SDS_P1;SDS_P2;PMS_P1;PMS_P2;Temp;Humidity;BMP_temperature;BMP_pressure;BME280_temperature;BME280_humidity;BME280_pressure;Samples;Min_cycle;Max_cycle;Signal;HPM_P1;HPM_P2
2023/12/28 00:00:38;;;;;;;4.75;4.03;;;;;;;6.58;72.34;98228.09;4955092;28;20511;-74
2023/12/28 00:03:04;;;;;;;4.88;3.70;;;;;;;6.50;71.66;98215.00;4940637;28;20160;-75
2023/12/28 00:05:29;;;;;;;4.45;3.60;;;;;;;6.54;71.63;98210.84;4925348;29;20043;-73
2023/12/28 00:07:57;;;;;;;4.47;3.80;;;;;;;6.60;71.70;98218.00;4933350;28;20380;-74
2023/12/28 00:10:27;;;;;;;5.35;3.50;;;;;;;6.66;71.40;98217.13;4942445;29;20039;-73
2023/12/28 00:12:53;;;;;;;4.65;3.78;;;;;;;6.57;70.94;98204.22;4914824;28;20019;-74
2023/12/28 00:15:19;;;;;;;4.68;3.72;;;;;;;6.64;71.03;98221.06;4936971;29;20118;-72
2023/12/28 00:17:44;;;;;;;5.10;3.40;;;;;;;6.62;70.81;98209.75;4925291;28;20054;-75
2023/12/28 00:20:10;;;;;;;3.67;3.17;;;;;;;6.59;70.47;98199.47;4934032;29;20506;-75
2023/12/28 00:22:37;;;;;;;5.80;3.67;;;;;;;6.56;69.28;98192.72;4929369;28;20035;-75
2023/12/28 00:25:03;;;;;;;3.47;3.17;;;;;;;6.52;70.09;98175.47;4928537;29;20043;-75
2023/12/28 00:27:29;;;;;;;4.10;3.67;;;;;;;6.64;70.26;98197.78;4943767;28;20110;-74
2023/12/28 00:29:54;;;;;;;4.10;3.33;;;;;;;6.56;69.52;98173.19;4949594;28;20050;-74
2023/12/28 00:32:20;;;;;;;4.72;3.20;;;;;;;6.60;69.44;98185.06;4930013;29;20833;-74
2023/12/28 00:34:45;;;;;;;3.65;3.28;;;;;;;6.71;69.04;98209.25;4928882;28;20027;-73
2023/12/28 00:37:11;;;;;;;5.45;3.65;;;;;;;6.68;68.63;98209.69;4940124;28;20031;-73
2023/12/28 00:39:38;;;;;;;3.92;3.38;;;;;;;6.65;68.54;98220.81;4947355;28;20035;-73
2023/12/28 00:42:04;;;;;;;4.72;3.47;;;;;;;6.71;68.68;98213.78;4927838;29;20073;-72
2023/12/28 00:44:29;;;;;;;4.03;3.22;;;;;;;6.59;68.06;98194.97;4925795;28;20035;-73
2023/12/28 00:46:55;;;;;;;5.43;3.53;;;;;;;6.69;68.55;98214.03;4956908;28;20023;-74
2023/12/28 00:49:20;;;;;;;4.40;3.20;;;;;;;6.63;68.67;98201.50;4943336;28;20034;-71
2023/12/28 00:51:45;;;;;;;5.93;4.03;;;;;;;6.68;67.89;98212.38;4948204;28;20031;-74
2023/12/28 00:54:11;;;;;;;4.90;3.38;;;;;;;6.72;67.95;98220.78;4923463;29;20149;-73
2023/12/28 00:56:36;;;;;;;4.43;3.33;;;;;;;6.75;68.19;98217.66;4930342;28;20023;-74
2023/12/28 00:59:02;;;;;;;5.50;3.50;;;;;;;6.57;68.43;98196.22;4914899;29;20117;-74
2023/12/28 01:01:30;;;;;;;4.53;3.50;;;;;;;6.48;68.61;98197.53;4928123;28;20492;-73
2023/12/28 01:03:56;;;;;;;3.65;3.05;;;;;;;6.59;68.26;98202.16;4927376;29;20039;-73
2023/12/28 01:06:21;;;;;;;3.90;3.50;;;;;;;6.49;68.88;98205.31;4930764;29;20042;-74
2023/12/28 01:08:47;;;;;;;4.38;3.42;;;;;;;6.58;67.29;98225.41;4940343;28;20050;-74
2023/12/28 01:11:12;;;;;;;4.65;3.60;;;;;;;6.49;68.13;98218.69;4927074;29;20034;-74
2023/12/28 01:13:39;;;;;;;4.60;3.08;;;;;;;6.54;67.66;98229.56;4938710;28;20042;-75
2023/12/28 01:16:06;;;;;;;4.07;3.35;;;;;;;6.42;67.90;98231.31;4929828;29;20759;-75
2023/12/28 01:18:32;;;;;;;4.03;3.10;;;;;;;6.36;67.54;98221.47;4916272;29;20028;-75
2023/12/28 01:20:57;;;;;;;3.70;3.30;;;;;;;6.39;68.04;98226.41;4924553;29;20090;-74
2023/12/28 01:23:23;;;;;;;3.75;3.30;;;;;;;6.47;67.45;98241.34;4918956;29;20050;-72
2023/12/28 01:25:48;;;;;;;4.53;3.30;;;;;;;6.35;66.72;98225.19;4949856;28;20038;-74
2023/12/28 01:28:14;;;;;;;3.97;3.42;;;;;;;6.44;68.07;98223.88;4935266;29;20059;-73
2023/12/28 01:30:39;;;;;;;3.58;3.08;;;;;;;6.37;67.03;98233.81;4957163;28;20034;-72
2023/12/28 01:33:04;;;;;;;3.97;3.40;;;;;;;6.52;66.97;98263.75;4912798;29;20031;-72
2023/12/28 01:35:30;;;;;;;5.07;3.38;;;;;;;6.52;66.89;98250.38;4942771;28;20496;-69
2023/12/28 01:37:55;;;;;;;5.63;3.53;;;;;;;6.47;66.42;98266.25;4926064;29;20032;-73
2023/12/28 01:40:21;;;;;;;4.28;3.38;;;;;;;6.35;67.81;98246.56;4929063;29;20038;-72
2023/12/28 01:42:46;;;;;;;4.38;3.30;;;;;;;6.26;68.17;98239.84;4938324;28;20047;-72
2023/12/28 01:45:11;;;;;;;4.53;3.20;;;;;;;6.35;67.82;98262.63;4935051;28;20629;-71
2023/12/28 01:47:37;;;;;;;4.45;3.92;;;;;;;6.24;67.90;98252.63;4934008;28;20039;-72
2023/12/28 01:50:03;;;;;;;3.53;3.20;;;;;;;6.29;68.59;98263.50;4926830;29;20083;-71
2023/12/28 01:52:28;;;;;;;5.90;3.47;;;;;;;6.30;67.65;98291.88;4919053;28;20775;-72
2023/12/28 01:54:54;;;;;;;4.68;3.22;;;;;;;6.31;67.68;98274.78;4913001;29;20051;-73
2023/12/28 01:57:20;;;;;;;4.75;3.38;;;;;;;6.24;68.70;98260.63;4940093;29;20058;-71
2023/12/28 01:59:46;;;;;;;4.55;3.63;;;;;;;6.22;68.48;98252.84;4933848;28;20479;-73
2023/12/28 02:02:11;;;;;;;3.90;3.50;;;;;;;6.25;69.40;98267.63;4917943;29;20487;-72
2023/12/28 02:04:37;;;;;;;4.15;3.63;;;;;;;6.28;68.52;98264.50;4957295;28;20536;-74
2023/12/28 02:07:02;;;;;;;3.95;3.55;;;;;;;6.15;68.89;98246.72;4946841;28;20407;-74
2023/12/28 02:09:28;;;;;;;4.07;3.40;;;;;;;6.14;68.44;98244.25;4927601;28;20099;-75
2023/12/28 02:11:54;;;;;;;5.28;3.70;;;;;;;6.20;68.53;98259.44;4941994;29;20050;-73
2023/12/28 02:14:21;;;;;;;4.85;3.72;;;;;;;6.13;68.44;98248.78;4947625;28;20060;-74
2023/12/28 02:16:52;;;;;;;5.90;3.80;;;;;;;6.23;68.47;98254.47;4934687;29;20035;-72
2023/12/28 02:19:40;;;;;;;4.32;3.47;;;;;;;6.07;68.21;98238.09;4941067;28;20039;-74
2023/12/28 02:22:05;;;;;;;4.63;3.70;;;;;;;6.08;68.81;98245.09;4960518;28;20047;-73
2023/12/28 02:24:31;;;;;;;4.18;3.72;;;;;;;6.10;69.07;98243.03;4929213;29;20016;-75
2023/12/28 02:26:56;;;;;;;3.83;3.35;;;;;;;6.11;68.72;98250.03;4935773;28;20388;-75
2023/12/28 02:29:21;;;;;;;4.35;3.50;;;;;;;6.01;68.34;98244.31;4910720;29;20118;-75
2023/12/28 02:31:56;;;;;;;4.30;3.75;;;;;;;6.00;68.72;98248.03;4924020;28;20047;-73
2023/12/28 02:34:28;;;;;;;5.43;4.00;;;;;;;5.99;68.84;98247.22;4924858;29;20059;-73
2023/12/28 02:36:54;;;;;;;4.30;3.90;;;;;;;5.95;68.46;98251.34;4928723;29;20043;-72
2023/12/28 02:39:20;;;;;;;3.65;3.20;;;;;;;6.06;68.94;98273.91;4931858;29;20028;-74
2023/12/28 02:41:46;;;;;;;4.30;3.40;;;;;;;6.04;68.73;98271.47;4928172;28;20073;-72
2023/12/28 02:44:12;;;;;;;4.70;3.35;;;;;;;5.97;68.63;98264.50;4924971;29;20023;-74
2023/12/28 02:46:38;;;;;;;5.18;3.58;;;;;;;6.02;68.27;98262.00;4928514;28;20525;-74
2023/12/28 02:49:04;;;;;;;3.92;3.45;;;;;;;6.11;67.62;98282.13;4929049;29;20106;-73
2023/12/28 02:51:31;;;;;;;5.13;3.42;;;;;;;6.09;67.53;98273.50;4930720;28;20059;-73
2023/12/28 02:53:56;;;;;;;5.15;3.38;;;;;;;6.09;66.64;98273.50;4947236;28;20053;-73
2023/12/28 02:56:22;;;;;;;4.40;3.67;;;;;;;6.12;66.56;98289.09;4927571;29;20558;-72
2023/12/28 02:58:47;;;;;;;3.30;3.00;;;;;;;6.16;67.70;98285.78;4928111;28;20043;-74
2023/12/28 03:01:13;;;;;;;5.03;3.55;;;;;;;6.00;67.31;98253.38;4945615;28;20031;-75
2023/12/28 03:03:38;;;;;;;3.63;3.30;;;;;;;6.20;66.81;98267.47;4947358;28;20502;-74
2023/12/28 03:06:03;;;;;;;4.00;3.30;;;;;;;6.06;67.29;98249.84;4938151;29;20036;-74
2023/12/28 03:08:30;;;;;;;3.90;3.20;;;;;;;6.23;67.09;98265.16;4930871;29;20477;-73
2023/12/28 03:10:55;;;;;;;4.05;3.50;;;;;;;6.20;66.78;98254.91;4939411;29;20107;-74
2023/12/28 03:13:21;;;;;;;4.75;3.28;;;;;;;6.14;66.81;98233.53;4946568;28;20025;-73
2023/12/28 03:15:46;;;;;;;3.85;3.40;;;;;;;6.27;66.36;98249.53;4925819;29;20458;-72
2023/12/28 03:18:11;;;;;;;3.85;3.17;;;;;;;6.15;66.17;98237.88;4932328;29;20027;-74
2023/12/28 03:20:37;;;;;;;5.68;3.40;;;;;;;6.29;65.92;98244.78;4929586;28;20506;-73
2023/12/28 03:23:02;;;;;;;4.57;3.45;;;;;;;6.09;65.44;98225.38;4907719;28;20055;-72
2023/12/28 03:25:28;;;;;;;3.75;3.28;;;;;;;6.23;65.99;98243.78;4942006;28;20492;-72
2023/12/28 03:27:54;;;;;;;3.67;3.15;;;;;;;6.32;65.69;98257.72;4962387;28;20082;-74
2023/12/28 03:30:20;;;;;;;5.20;3.30;;;;;;;6.22;64.76;98235.97;4926971;29;20081;-75
2023/12/28 03:32:45;;;;;;;5.57;3.50;;;;;;;6.20;64.58;98227.34;4917260;29;20031;-74
2023/12/28 03:35:11;;;;;;;4.10;3.30;;;;;;;6.24;65.17;98236.56;4928919;29;20519;-74
2023/12/28 03:37:36;;;;;;;4.22;3.63;;;;;;;6.28;64.49;98227.06;4939727;28;20023;-74
2023/12/28 03:40:01;;;;;;;3.15;2.85;;;;;;;6.40;63.90;98248.59;4941066;29;20046;-72
2023/12/28 03:42:28;;;;;;;3.90;3.30;;;;;;;6.36;64.69;98226.81;4928306;28;20028;-73
2023/12/28 03:44:54;;;;;;;3.85;3.10;;;;;;;6.38;63.94;98242.66;4940701;29;20090;-74
2023/12/28 03:47:19;;;;;;;6.03;3.28;;;;;;;6.44;64.40;98250.63;4928824;29;20496;-74
2023/12/28 03:49:45;;;;;;;4.25;3.17;;;;;;;6.48;62.97;98257.19;4931615;29;20094;-74
2023/12/28 03:52:12;;;;;;;3.88;2.90;;;;;;;6.38;63.80;98235.44;4930543;29;20030;-73
2023/12/28 03:54:37;;;;;;;3.75;2.83;;;;;;;6.53;63.58;98248.53;4933137;28;20047;-73
2023/12/28 03:57:03;;;;;;;3.55;3.22;;;;;;;6.55;63.71;98247.28;4940196;28;20433;-74
2023/12/28 03:59:28;;;;;;;5.13;3.53;;;;;;;6.66;63.65;98249.22;4927226;28;20086;-72
2023/12/28 04:01:53;;;;;;;3.63;3.00;;;;;;;6.69;63.54;98238.09;4927927;28;20109;-73
2023/12/28 04:04:19;;;;;;;4.78;2.78;;;;;;;6.68;63.21;98236.44;4925138;29;20039;-74
2023/12/28 04:06:44;;;;;;;3.63;3.22;;;;;;;6.78;62.83;98247.50;4926253;28;20043;-73
2023/12/28 04:09:13;;;;;;;4.15;3.00;;;;;;;6.77;62.43;98235.13;4945942;28;20050;-71
2023/12/28 04:11:38;;;;;;;3.30;3.00;;;;;;;6.85;62.70;98252.78;4954376;28;20027;-73
2023/12/28 04:14:04;;;;;;;4.05;3.35;;;;;;;6.75;63.24;98231.03;4952530;28;20513;-73
2023/12/28 04:16:29;;;;;;;5.15;3.03;;;;;;;6.89;62.57;98246.78;4919742;29;20088;-74
2023/12/28 04:18:54;;;;;;;3.40;3.08;;;;;;;6.96;63.22;98249.38;4920702;29;20537;-73
2023/12/28 04:21:20;;;;;;;5.57;3.25;;;;;;;6.98;62.91;98253.47;4945289;28;20127;-74
2023/12/28 04:23:45;;;;;;;3.75;2.97;;;;;;;6.98;62.37;98252.66;4947494;28;20039;-73
2023/12/28 04:26:11;;;;;;;4.10;3.03;;;;;;;7.02;62.84;98258.41;4923629;29;20031;-73
2023/12/28 04:28:36;;;;;;;3.55;3.10;;;;;;;6.98;62.33;98242.78;4949483;28;20542;-73
2023/12/28 04:31:05;;;;;;;5.18;3.38;;;;;;;7.07;62.49;98255.88;4929927;29;20448;-72
2023/12/28 04:33:31;;;;;;;4.45;3.15;;;;;;;7.15;61.98;98258.25;4917881;29;20123;-74
2023/12/28 04:35:56;;;;;;;3.95;3.05;;;;;;;7.18;61.85;98263.19;4924189;29;20127;-73
2023/12/28 04:38:22;;;;;;;3.30;3.00;;;;;;;7.14;61.76;98252.09;4928536;29;20042;-70
2023/12/28 04:40:47;;;;;;;3.50;3.00;;;;;;;7.22;62.42;98259.84;4934044;28;20076;-74
2023/12/28 04:43:13;;;;;;;3.88;3.03;;;;;;;7.25;61.30;98251.38;4956053;28;20039;-75
2023/12/28 04:45:38;;;;;;;3.25;2.80;;;;;;;7.29;61.74;98254.41;4917403;28;20015;-72
2023/12/28 04:48:04;;;;;;;3.33;2.75;;;;;;;7.33;61.14;98256.44;4936664;29;20091;-74
2023/12/28 04:50:29;;;;;;;4.68;3.10;;;;;;;7.35;61.28;98261.59;4912578;28;20028;-74
2023/12/28 04:52:55;;;;;;;3.30;3.00;;;;;;;7.37;61.40;98251.47;4948106;28;20040;-74
2023/12/28 04:55:20;;;;;;;3.20;2.90;;;;;;;7.40;61.13;98251.00;4929057;29;20491;-69
2023/12/28 04:57:46;;;;;;;4.55;3.00;;;;;;;7.43;61.19;98255.91;4953669;28;20070;-74
2023/12/28 05:00:12;;;;;;;4.53;3.28;;;;;;;7.50;61.33;98272.75;4913979;29;20729;-70
2023/12/28 05:02:38;;;;;;;3.92;2.85;;;;;;;7.50;61.32;98276.25;4932727;28;20046;-72
2023/12/28 05:05:04;;;;;;;4.28;2.90;;;;;;;7.49;61.40;98271.13;4917751;29;20020;-71
2023/12/28 05:07:29;;;;;;;4.20;3.00;;;;;;;7.52;60.69;98270.66;4937229;29;20041;-73
2023/12/28 05:09:56;;;;;;;4.40;2.97;;;;;;;7.56;61.16;98271.88;4936911;28;20051;-72
2023/12/28 05:12:21;;;;;;;3.47;3.17;;;;;;;7.57;60.82;98273.50;4927588;29;20046;-71
2023/12/28 05:14:46;;;;;;;3.80;3.05;;;;;;;7.59;61.13;98276.75;4949314;28;20042;-71
2023/12/28 05:17:12;;;;;;;4.15;2.85;;;;;;;7.57;60.89;98292.25;4961994;28;20047;-70
2023/12/28 05:19:37;;;;;;;3.88;3.03;;;;;;;7.63;61.18;98294.06;4948325;28;20113;-71
2023/12/28 05:22:06;;;;;;;4.60;2.78;;;;;;;7.64;61.72;98301.03;4949969;28;20035;-72
2023/12/28 05:24:31;;;;;;;4.10;3.15;;;;;;;7.61;62.34;98302.28;4949583;28;20034;-72
2023/12/28 05:26:57;;;;;;;3.50;3.20;;;;;;;7.57;63.62;98289.56;4946717;28;20399;-73
2023/12/28 05:29:22;;;;;;;3.28;2.97;;;;;;;7.40;63.28;98267.06;4914533;29;20098;-71
2023/12/28 05:31:47;;;;;;;4.72;3.15;;;;;;;7.58;64.12;98291.22;4932380;29;20046;-71
2023/12/28 05:34:13;;;;;;;4.13;3.17;;;;;;;7.59;64.16;98298.19;4942158;28;20402;-70
2023/12/28 05:36:40;;;;;;;3.83;3.05;;;;;;;7.57;64.09;98301.13;4928600;28;20055;-72
2023/12/28 05:39:06;;;;;;;4.68;3.42;;;;;;;7.56;64.14;98325.47;4911576;29;20020;-71
2023/12/28 05:41:31;;;;;;;3.25;2.95;;;;;;;7.57;62.99;98319.03;4942598;28;20479;-72
2023/12/28 05:43:56;;;;;;;6.70;4.00;;;;;;;7.62;63.35;98327.25;4944488;29;20023;-70
2023/12/28 05:46:22;;;;;;;5.20;3.10;;;;;;;7.60;62.93;98316.75;4949599;28;20360;-71
2023/12/28 05:48:47;;;;;;;3.63;3.03;;;;;;;7.61;62.77;98329.09;4936670;28;20034;-71
2023/12/28 05:51:13;;;;;;;3.20;2.90;;;;;;;7.60;63.31;98314.06;4934145;29;20039;-70
2023/12/28 05:53:38;;;;;;;4.25;3.15;;;;;;;7.68;62.34;98326.34;4960416;28;20043;-69
2023/12/28 05:56:04;;;;;;;4.15;3.20;;;;;;;7.69;62.11;98330.66;4921207;29;20039;-70
2023/12/28 05:58:29;;;;;;;5.25;3.60;;;;;;;7.62;63.12;98319.19;4934022;28;20042;-69
2023/12/28 06:00:55;;;;;;;4.18;3.20;;;;;;;7.70;63.48;98342.22;4952041;28;20039;-71
2023/12/28 06:03:20;;;;;;;3.25;2.95;;;;;;;7.69;63.34;98330.66;4950097;28;20034;-74
2023/12/28 06:05:46;;;;;;;3.53;2.90;;;;;;;7.65;64.79;98335.63;4927042;28;20038;-71
2023/12/28 06:08:11;;;;;;;4.22;3.53;;;;;;;7.66;64.30;98341.81;4912219;28;20028;-71
2023/12/28 06:10:37;;;;;;;4.78;3.55;;;;;;;7.64;65.29;98338.56;4948752;28;20128;-70
2023/12/28 06:13:02;;;;;;;5.07;4.28;;;;;;;7.54;64.79;98322.16;4919340;29;20028;-73
2023/12/28 06:15:27;;;;;;;4.68;3.60;;;;;;;7.61;64.56;98322.91;4949007;28;20047;-72
2023/12/28 06:17:53;;;;;;;4.90;3.83;;;;;;;7.63;65.08;98327.00;4952797;28;20027;-73
2023/12/28 06:20:19;;;;;;;4.65;3.65;;;;;;;7.62;64.52;98311.97;4933941;29;20122;-73
2023/12/28 06:22:48;;;;;;;3.30;3.00;;;;;;;7.64;64.43;98312.56;4955795;28;20614;-73
2023/12/28 06:25:14;;;;;;;4.68;3.53;;;;;;;7.71;63.77;98323.22;4940217;28;20036;-73
2023/12/28 06:27:39;;;;;;;3.72;3.20;;;;;;;7.67;64.34;98311.31;4937329;28;20102;-73
2023/12/28 06:30:05;;;;;;;3.67;3.22;;;;;;;7.61;63.32;98288.91;4944042;29;20150;-72
2023/12/28 06:32:31;;;;;;;4.47;3.38;;;;;;;7.76;63.02;98323.38;4941580;28;20578;-72
2023/12/28 06:34:56;;;;;;;3.60;3.30;;;;;;;7.68;63.90;98312.13;4952962;28;20050;-71
2023/12/28 06:37:21;;;;;;;4.60;3.92;;;;;;;7.63;63.31;98294.06;4925569;29;20031;-72
2023/12/28 06:39:47;;;;;;;3.50;3.10;;;;;;;7.76;63.75;98326.06;4942630;28;20038;-73
2023/12/28 06:42:12;;;;;;;4.60;3.20;;;;;;;7.69;63.82;98317.28;4935170;29;20027;-73
2023/12/28 06:44:38;;;;;;;4.85;3.03;;;;;;;7.77;63.27;98335.72;4954223;28;20040;-73
2023/12/28 06:47:03;;;;;;;5.25;3.05;;;;;;;7.77;63.36;98332.25;4927605;29;20519;-73
2023/12/28 06:49:28;;;;;;;3.92;3.40;;;;;;;7.71;63.72;98333.94;4951709;28;20043;-71
2023/12/28 06:51:54;;;;;;;4.47;3.13;;;;;;;7.77;63.74;98354.47;4938516;28;20035;-73
2023/12/28 06:54:19;;;;;;;5.28;3.00;;;;;;;7.79;63.53;98360.47;4947917;28;20047;-73
2023/12/28 06:56:45;;;;;;;4.55;2.92;;;;;;;7.82;63.18;98367.25;4940194;29;20058;-71
2023/12/28 06:59:13;;;;;;;4.30;3.05;;;;;;;7.83;64.51;98367.03;4948386;28;20159;-74
2023/12/28 07:01:39;;;;;;;3.53;2.88;;;;;;;7.68;64.37;98345.09;4905388;29;20027;-74
2023/12/28 07:04:04;;;;;;;5.35;3.50;;;;;;;7.88;63.85;98366.34;4951119;28;20042;-74
2023/12/28 07:06:30;;;;;;;3.72;3.38;;;;;;;7.88;64.70;98350.25;4933484;29;20031;-72
2023/12/28 07:08:55;;;;;;;4.22;3.20;;;;;;;7.84;65.33;98354.44;4933197;29;20072;-72
2023/12/28 07:11:21;;;;;;;3.72;3.35;;;;;;;7.87;64.88;98359.34;4943972;28;20483;-72
2023/12/28 07:13:46;;;;;;;5.03;3.65;;;;;;;7.88;64.89;98356.44;4950507;28;20089;-72
2023/12/28 07:16:12;;;;;;;5.28;4.28;;;;;;;7.92;65.80;98354.94;4942384;28;20039;-70
2023/12/28 07:18:38;;;;;;;5.38;4.65;;;;;;;7.85;65.59;98351.53;4943369;28;20047;-71
2023/12/28 07:21:03;;;;;;;6.85;5.85;;;;;;;7.78;65.75;98326.66;4913444;28;20030;-70
2023/12/28 07:23:29;;;;;;;7.55;5.75;;;;;;;7.98;65.95;98364.78;4954069;28;20034;-72
2023/12/28 07:25:55;;;;;;;5.55;4.72;;;;;;;8.03;65.99;98362.25;4938137;28;20027;-73
2023/12/28 07:28:20;;;;;;;6.43;4.50;;;;;;;8.02;66.30;98371.34;4946730;28;20641;-73
2023/12/28 07:30:46;;;;;;;4.70;3.65;;;;;;;8.03;67.48;98370.28;4946728;28;20063;-73
2023/12/28 07:33:11;;;;;;;5.13;3.30;;;;;;;8.06;67.47;98380.56;4926482;29;20125;-73
2023/12/28 07:35:37;;;;;;;4.07;3.38;;;;;;;8.07;67.37;98376.88;4937303;28;20631;-71
2023/12/28 07:38:02;;;;;;;3.97;3.33;;;;;;;8.08;68.33;98378.50;4942116;28;20050;-72
2023/12/28 07:40:28;;;;;;;3.85;3.22;;;;;;;7.77;67.96;98333.03;4930177;28;20034;-72
2023/12/28 07:42:53;;;;;;;4.68;3.20;;;;;;;8.10;68.48;98365.66;4932216;29;20055;-73
2023/12/28 07:45:23;;;;;;;3.75;3.35;;;;;;;8.13;68.80;98370.59;4944445;28;20110;-73
2023/12/28 07:47:50;;;;;;;4.53;3.20;;;;;;;8.16;69.65;98380.88;4921396;28;20477;-73
2023/12/28 07:50:15;;;;;;;6.47;3.50;;;;;;;8.11;70.28;98378.06;4942781;29;20082;-74
2023/12/28 07:52:42;;;;;;;4.57;3.42;;;;;;;8.09;71.08;98374.78;4949833;28;20121;-73
2023/12/28 07:55:07;;;;;;;6.25;4.07;;;;;;;8.17;70.94;98382.50;4921468;29;20047;-74
2023/12/28 07:57:34;;;;;;;5.82;4.03;;;;;;;8.22;71.69;98388.03;4928902;28;20039;-73
2023/12/28 07:59:59;;;;;;;4.70;3.80;;;;;;;8.24;71.66;98385.94;4947234;28;20023;-74
2023/12/28 08:02:25;;;;;;;4.60;3.53;;;;;;;8.23;72.46;98392.34;4941400;29;20748;-74
2023/12/28 08:04:50;;;;;;;5.13;3.47;;;;;;;8.28;72.38;98384.47;4944895;28;20018;-72
2023/12/28 08:07:15;;;;;;;3.97;3.30;;;;;;;8.32;72.44;98385.66;4943140;28;20031;-74
2023/12/28 08:09:41;;;;;;;16.65;12.32;;;;;;;8.32;72.72;98391.03;4927910;29;20062;-73
2023/12/28 08:12:06;;;;;;;78.75;42.58;;;;;;;8.25;73.69;98376.03;4940352;28;20035;-73
2023/12/28 08:14:32;;;;;;;155.73;79.75;;;;;;;8.31;74.28;98383.19;4943717;28;20028;-73
2023/12/28 08:16:57;;;;;;;165.35;81.25;;;;;;;8.40;75.11;98397.16;4927525;29;20038;-73
2023/12/28 08:19:24;;;;;;;188.18;85.25;;;;;;;8.31;76.21;98378.66;4925619;29;20034;-72
2023/12/28 08:21:49;;;;;;;154.90;70.85;;;;;;;8.40;75.84;98403.34;4925487;28;20102;-73
2023/12/28 08:24:16;;;;;;;37.75;19.30;;;;;;;8.40;77.19;98403.34;4949953;28;20034;-73
2023/12/28 08:26:41;;;;;;;21.23;13.15;;;;;;;8.46;77.46;98396.22;4944235;28;20055;-74
2023/12/28 08:29:07;;;;;;;16.52;11.13;;;;;;;8.45;77.82;98405.34;4940722;28;20032;-73
2023/12/28 08:31:32;;;;;;;11.40;6.40;;;;;;;8.49;78.33;98414.56;4933619;29;20121;-72
2023/12/28 08:33:58;;;;;;;6.55;4.18;;;;;;;8.52;78.91;98422.97;4937090;28;20027;-73
2023/12/28 08:36:23;;;;;;;7.50;4.97;;;;;;;8.54;79.46;98431.63;4924287;29;20395;-73
2023/12/28 08:38:48;;;;;;;7.68;5.25;;;;;;;8.60;79.71;98429.91;4934264;28;20483;-72
2023/12/28 08:41:18;;;;;;;7.68;6.35;;;;;;;8.64;79.12;98428.41;4930907;29;20035;-72
2023/12/28 08:43:44;;;;;;;11.38;8.20;;;;;;;8.54;79.65;98401.31;4944198;28;20039;-74
2023/12/28 08:46:09;;;;;;;8.30;5.90;;;;;;;8.60;80.19;98409.25;4939209;29;20254;-74
2023/12/28 08:48:36;;;;;;;8.07;4.65;;;;;;;8.68;80.42;98421.56;4959021;28;20027;-72
2023/12/28 08:51:01;;;;;;;6.72;3.80;;;;;;;8.65;80.76;98395.16;4932579;29;20093;-70
2023/12/28 08:53:26;;;;;;;4.45;3.67;;;;;;;8.71;81.09;98411.16;4925676;28;20673;-72
2023/12/28 08:55:52;;;;;;;4.35;3.30;;;;;;;8.69;81.52;98407.06;4927682;28;20059;-73
2023/12/28 08:58:17;;;;;;;6.55;4.07;;;;;;;8.78;82.22;98411.06;4953710;28;20086;-73
2023/12/28 09:00:45;;;;;;;6.15;3.70;;;;;;;8.76;82.31;98411.31;4945526;28;20055;-73
2023/12/28 09:03:10;;;;;;;3.97;3.53;;;;;;;8.81;82.59;98405.25;4927193;29;20035;-73
2023/12/28 09:05:35;;;;;;;3.95;3.55;;;;;;;8.79;82.71;98392.06;4949151;28;20038;-75
2023/12/28 09:08:01;;;;;;;5.47;3.15;;;;;;;8.83;83.16;98403.16;4941925;28;20022;-72
2023/12/28 09:10:26;;;;;;;5.00;3.85;;;;;;;8.91;82.95;98394.78;4955204;28;20031;-73
2023/12/28 09:12:51;;;;;;;5.75;4.32;;;;;;;8.91;83.71;98400.16;4944370;28;20059;-72
2023/12/28 09:15:17;;;;;;;5.68;4.35;;;;;;;8.96;83.78;98411.06;4946536;28;20443;-73
2023/12/28 09:17:42;;;;;;;3.47;2.80;;;;;;;8.89;84.48;98396.91;4945684;28;20072;-74
2023/12/28 09:20:08;;;;;;;4.85;3.55;;;;;;;9.02;84.33;98407.44;4939305;29;20435;-72
2023/12/28 09:22:34;;;;;;;3.97;2.65;;;;;;;8.89;84.85;98392.31;4947693;28;20402;-72
2023/12/28 09:24:59;;;;;;;3.60;2.70;;;;;;;9.05;85.08;98423.09;4932460;29;20038;-74
2023/12/28 09:27:25;;;;;;;3.08;2.80;;;;;;;8.97;85.45;98418.03;4940898;29;20482;-73
2023/12/28 09:29:50;;;;;;;3.67;3.05;;;;;;;9.08;85.34;98422.63;4927962;29;20049;-72
2023/12/28 09:32:16;;;;;;;2.80;2.60;;;;;;;9.04;85.20;98416.09;4927608;29;20110;-73
2023/12/28 09:34:42;;;;;;;4.47;3.15;;;;;;;9.07;85.56;98421.00;4922997;28;20078;-72
2023/12/28 09:37:07;;;;;;;3.60;3.10;;;;;;;9.16;85.46;98424.16;4911220;29;20122;-72
2023/12/28 09:39:33;;;;;;;2.80;2.60;;;;;;;9.13;85.56;98430.81;4950157;28;20043;-72
2023/12/28 09:42:05;;;;;;;4.78;2.92;;;;;;;9.24;85.13;98419.28;4951879;28;20086;-72
2023/12/28 09:44:30;;;;;;;3.35;3.03;;;;;;;9.22;84.56;98413.31;4917592;28;20039;-72
2023/12/28 09:46:57;;;;;;;3.75;3.28;;;;;;;9.19;85.59;98416.50;4914533;28;20026;-73
2023/12/28 09:49:23;;;;;;;3.10;2.80;;;;;;;9.23;86.07;98409.59;4954677;28;20067;-72
2023/12/28 09:51:48;;;;;;;3.17;2.90;;;;;;;9.25;86.01;98391.38;4952618;28;20118;-72
2023/12/28 09:54:14;;;;;;;3.20;2.90;;;;;;;9.27;86.25;98405.38;4937740;28;20097;-71
2023/12/28 09:56:40;;;;;;;3.78;3.28;;;;;;;9.25;85.64;98402.13;4921102;28;20023;-72
2023/12/28 09:59:06;;;;;;;3.35;2.90;;;;;;;9.40;85.94;98410.56;4950564;28;20114;-71
2023/12/28 10:01:33;;;;;;;3.40;3.10;;;;;;;9.38;86.10;98412.66;4950011;28;20494;-72
2023/12/28 10:03:58;;;;;;;3.92;3.63;;;;;;;9.34;86.56;98406.09;4910553;29;20055;-73
2023/12/28 10:06:23;;;;;;;3.30;3.03;;;;;;;9.38;85.87;98412.66;4946919;28;20023;-72
2023/12/28 10:08:49;;;;;;;4.03;3.67;;;;;;;9.30;85.91;98404.94;4933120;28;20049;-74
2023/12/28 10:11:15;;;;;;;5.03;4.30;;;;;;;9.40;85.86;98396.31;4957444;28;20027;-73
2023/12/28 10:13:42;;;;;;;3.30;3.05;;;;;;;9.39;86.02;98390.09;4929785;28;20444;-73
2023/12/28 10:16:08;;;;;;;3.60;3.30;;;;;;;9.37;86.15;98402.97;4942123;28;20046;-72
2023/12/28 10:18:35;;;;;;;5.22;3.25;;;;;;;9.45;86.02;98397.22;4933647;28;20130;-74
2023/12/28 10:21:00;;;;;;;5.18;3.75;;;;;;;9.40;85.96;98397.13;4945359;28;20223;-72
2023/12/28 10:23:25;;;;;;;4.35;3.65;;;;;;;9.26;85.71;98366.16;4928422;29;20507;-72
2023/12/28 10:25:53;;;;;;;3.70;3.40;;;;;;;9.44;86.28;98401.00;4925728;28;20942;-73
2023/12/28 10:28:19;;;;;;;3.80;3.50;;;;;;;9.42;86.04;98386.97;4947822;28;20098;-72
2023/12/28 10:30:45;;;;;;;3.97;3.58;;;;;;;9.39;86.41;98383.91;4939538;28;20027;-72
2023/12/28 10:33:10;;;;;;;3.25;3.05;;;;;;;9.41;86.66;98385.31;4948752;29;20558;-72
2023/12/28 10:35:36;;;;;;;3.72;3.42;;;;;;;9.40;86.36;98394.44;4956693;28;20031;-74
2023/12/28 10:38:04;;;;;;;3.60;3.30;;;;;;;9.39;86.73;98397.34;4943143;28;20500;-72
2023/12/28 10:40:32;;;;;;;4.05;3.58;;;;;;;9.45;86.75;98388.38;4940080;28;20449;-72
2023/12/28 10:43:02;;;;;;;3.80;3.47;;;;;;;9.52;86.51;98384.50;4910814;29;20883;-73
2023/12/28 10:45:35;;;;;;;4.55;3.65;;;;;;;9.48;86.64;98379.81;4929056;29;20035;-73
2023/12/28 10:48:07;;;;;;;4.00;3.65;;;;;;;9.54;86.58;98386.97;4942050;29;20035;-73
2023/12/28 10:50:42;;;;;;;5.75;3.60;;;;;;;9.53;86.81;98378.09;4932522;28;20062;-72
2023/12/28 10:53:25;;;;;;;5.05;3.78;;;;;;;9.50;86.70;98378.53;4926492;29;20036;-72
2023/12/28 10:56:17;;;;;;;4.82;4.38;;;;;;;9.54;86.76;98377.03;4949232;28;20466;-72
2023/12/28 10:58:49;;;;;;;5.55;4.22;;;;;;;9.50;87.11;98373.16;4932073;28;20653;-72
2023/12/28 11:01:25;;;;;;;5.13;4.63;;;;;;;9.56;86.57;98374.13;4943526;28;20537;-72
2023/12/28 11:04:01;;;;;;;4.50;4.10;;;;;;;9.58;86.67;98380.91;4946637;28;20046;-71
2023/12/28 11:06:27;;;;;;;5.22;3.90;;;;;;;9.58;86.71;98374.69;4942367;28;20787;-74
2023/12/28 11:08:54;;;;;;;4.95;4.05;;;;;;;9.56;86.91;98377.63;4952033;28;20037;-71
2023/12/28 11:11:21;;;;;;;4.28;3.70;;;;;;;9.62;86.70;98387.44;4940717;29;20398;-71
2023/12/28 11:13:47;;;;;;;4.63;4.22;;;;;;;9.63;86.74;98386.41;4928932;28;20475;-72
2023/12/28 11:16:13;;;;;;;4.50;3.92;;;;;;;9.55;86.47;98359.84;4912788;29;20035;-73
2023/12/28 11:18:38;;;;;;;4.47;4.05;;;;;;;9.59;86.64;98371.75;4928923;28;20023;-72
2023/12/28 11:21:04;;;;;;;4.28;3.88;;;;;;;9.47;87.01;98360.22;4934253;28;20379;-72
2023/12/28 11:23:30;;;;;;;5.20;4.18;;;;;;;9.48;86.88;98358.31;4932708;29;20035;-72
2023/12/28 11:25:55;;;;;;;4.57;4.00;;;;;;;9.59;87.02;98370.97;4943637;29;20154;-72
2023/12/28 11:28:23;;;;;;;5.53;4.30;;;;;;;9.50;87.52;98367.78;4922008;29;20028;-72
2023/12/28 11:30:48;;;;;;;5.55;4.85;;;;;;;9.57;87.22;98363.13;4947605;28;20439;-73
2023/12/28 11:33:14;;;;;;;5.75;5.25;;;;;;;9.54;86.96;98360.91;4941727;28;20059;-72
2023/12/28 11:35:40;;;;;;;6.60;6.00;;;;;;;9.54;87.24;98358.22;4946881;28;20042;-74